Time;durP1;ratioP1;P1;durP2;ratioP2;P2;SDS_P1;SDS_P2;PMS_P1;PMS_P2;Temp;Humidity;BMP_temperature;BMP_pressure;BME280_temperature;BME280_humidity;BME280_pressure;Samples;Min_cycle;Max_cycle;Signal;HPM_P1;HPM_P2
2024/03/26 00:00:00;;;;;;;5.28;2.00;;;5.60;1.00;;;;;;5072653;28;20048;-64
2024/03/26 00:02:26;;;;;;;8.40;2.20;;;5.60;1.00;;;;;;5068731;28;20044;-64
2024/03/26 00:04:52;;;;;;;7.03;2.45;;;5.60;1.00;;;;;;5078536;28;20105;-64
2024/03/26 00:07:18;;;;;;;17.92;2.58;;;5.60;1.00;;;;;;5067706;28;20110;-63
2024/03/26 00:09:44;;;;;;;7.68;1.85;;;5.50;1.00;;;;;;5063591;28;20483;-64
2024/03/26 00:12:10;;;;;;;6.75;2.45;;;5.50;1.00;;;;;;5073620;28;20089;-64
2024/03/26 00:14:35;;;;;;;9.73;2.30;;;5.50;1.00;;;;;;5066547;28;20118;-64
2024/03/26 00:17:01;;;;;;;9.80;2.40;;;5.50;99.90;;;;;;5070449;28;20126;-64
2024/03/26 00:19:28;;;;;;;10.35;2.70;;;5.50;99.90;;;;;;5064663;28;20140;-63
2024/03/26 00:21:54;;;;;;;9.30;2.65;;;5.50;99.90;;;;;;5063393;28;20056;-64
2024/03/26 00:24:20;;;;;;;8.15;2.17;;;5.40;99.90;;;;;;5062385;28;20048;-64
2024/03/26 00:26:46;;;;;;;6.35;2.05;;;5.40;99.90;;;;;;5065872;28;20125;-64
2024/03/26 00:29:11;;;;;;;5.13;2.47;;;5.40;99.90;;;;;;5069184;28;20055;-64
2024/03/26 00:31:37;;;;;;;12.60;2.60;;;5.40;99.90;;;;;;5071658;28;20032;-64
2024/03/26 00:34:03;;;;;;;10.13;2.58;;;5.40;99.90;;;;;;5073896;28;20102;-64
2024/03/26 00:36:31;;;;;;;12.10;2.90;;;5.30;99.90;;;;;;5071615;28;20509;-64
2024/03/26 00:38:57;;;;;;;13.75;3.08;;;5.40;1.00;;;;;;5073006;28;20986;-64
2024/03/26 00:41:23;;;;;;;7.70;2.53;;;5.40;99.90;;;;;;5071568;28;20052;-64
2024/03/26 00:43:48;;;;;;;10.85;2.20;;;5.40;1.00;;;;;;5076644;28;20121;-64
2024/03/26 00:46:14;;;;;;;7.45;2.70;;;5.40;99.90;;;;;;5060733;28;20119;-64
2024/03/26 00:48:40;;;;;;;12.38;2.45;;;5.30;99.90;;;;;;5064424;28;20060;-64
2024/03/26 00:51:06;;;;;;;14.63;2.42;;;5.40;99.90;;;;;;5074595;28;20486;-63
2024/03/26 00:53:32;;;;;;;12.15;2.80;;;5.30;99.90;;;;;;5062438;28;20268;-64
2024/03/26 00:55:57;;;;;;;8.98;2.28;;;5.30;99.90;;;;;;5070484;28;20787;-64
2024/03/26 00:58:23;;;;;;;12.52;2.90;;;5.30;99.90;;;;;;5069522;28;20047;-63
2024/03/26 01:00:49;;;;;;;8.90;2.97;;;5.20;99.90;;;;;;5067093;28;20041;-64
2024/03/26 01:03:15;;;;;;;7.10;2.30;;;5.20;99.90;;;;;;5069162;28;20525;-63
2024/03/26 01:05:50;;;;;;;13.77;2.45;;;5.20;99.90;;;;;;5075115;28;20623;-64
2024/03/26 01:08:15;;;;;;;7.63;2.70;;;5.20;99.90;;;;;;5063805;28;20093;-64
2024/03/26 01:10:41;;;;;;;12.57;2.58;;;5.20;99.90;;;;;;5065263;28;20049;-64
2024/03/26 01:13:07;;;;;;;7.55;2.35;;;5.20;99.90;;;;;;5083604;28;20051;-64
2024/03/26 01:15:32;;;;;;;6.63;2.33;;;5.20;99.90;;;;;;5082690;28;20590;-63
2024/03/26 01:17:58;;;;;;;15.80;2.60;;;5.20;99.90;;;;;;5074093;28;20079;-64
2024/03/26 01:20:24;;;;;;;10.63;2.78;;;5.20;99.90;;;;;;5076970;28;20418;-64
2024/03/26 01:22:50;;;;;;;9.13;2.72;;;5.20;99.90;;;;;;5084770;28;20055;-64
2024/03/26 01:25:17;;;;;;;7.28;2.10;;;5.20;99.90;;;;;;5071439;28;20044;-64
2024/03/26 01:27:42;;;;;;;8.95;2.90;;;5.30;99.90;;;;;;5082607;28;20059;-64
2024/03/26 01:30:09;;;;;;;10.55;2.58;;;5.30;99.90;;;;;;5081932;28;20044;-63
2024/03/26 01:32:35;;;;;;;7.82;2.30;;;5.30;99.90;;;;;;5077333;28;20052;-64
2024/03/26 01:35:01;;;;;;;6.50;2.78;;;5.30;99.90;;;;;;5076113;28;20079;-64
2024/03/26 01:37:28;;;;;;;11.52;3.05;;;5.20;99.90;;;;;;5074282;28;20548;-64
2024/03/26 01:39:54;;;;;;;5.90;2.85;;;5.20;99.90;;;;;;5081223;28;20048;-64
2024/03/26 01:42:19;;;;;;;12.20;2.63;;;5.20;99.90;;;;;;5075883;28;20161;-64
2024/03/26 01:44:45;;;;;;;8.18;2.40;;;5.20;99.90;;;;;;5069233;28;20113;-63
2024/03/26 01:47:11;;;;;;;9.20;2.97;;;5.10;99.90;;;;;;5075110;28;20131;-64
2024/03/26 01:49:36;;;;;;;7.80;2.63;;;5.10;99.90;;;;;;5075197;28;20082;-64
2024/03/26 01:52:03;;;;;;;5.78;2.40;;;5.10;99.90;;;;;;5078531;28;20538;-64
2024/03/26 01:54:28;;;;;;;8.23;2.42;;;5.10;99.90;;;;;;5068813;28;20040;-64
2024/03/26 01:56:56;;;;;;;7.22;2.92;;;5.10;99.90;;;;;;5072888;28;20053;-64
2024/03/26 01:59:24;;;;;;;6.32;2.15;;;5.10;99.90;;;;;;5068667;28;20502;-64
2024/03/26 02:01:50;;;;;;;6.95;2.00;;;5.00;99.90;;;;;;5073165;28;20087;-64
2024/03/26 02:04:15;;;;;;;11.65;2.50;;;5.00;99.90;;;;;;5076326;28;20080;-64
2024/03/26 02:06:41;;;;;;;7.18;2.40;;;5.00;99.90;;;;;;5073181;28;20044;-64
2024/03/26 02:09:07;;;;;;;12.35;2.65;;;5.00;99.90;;;;;;5062359;28;20072;-64
2024/03/26 02:11:33;;;;;;;5.45;2.55;;;4.90;99.90;;;;;;5081347;28;20408;-64
2024/03/26 02:13:58;;;;;;;5.88;2.83;;;5.00;99.90;;;;;;5075268;28;20080;-64
2024/03/26 02:16:24;;;;;;;13.68;3.08;;;4.90;99.90;;;;;;5067869;28;20048;-64
2024/03/26 02:18:50;;;;;;;8.20;2.72;;;4.90;99.90;;;;;;5070988;28;20119;-64
2024/03/26 02:21:16;;;;;;;8.55;2.47;;;4.90;99.90;;;;;;5078085;28;20405;-64
2024/03/26 02:23:42;;;;;;;10.15;2.10;;;4.90;99.90;;;;;;5079227;28;20037;-64
2024/03/26 02:26:18;;;;;;;7.40;2.47;;;4.90;99.90;;;;;;5081190;28;20133;-64
2024/03/26 02:28:43;;;;;;;8.23;2.67;;;4.90;99.90;;;;;;5074101;28;20048;-64
2024/03/26 02:31:09;;;;;;;7.50;2.65;;;4.90;99.90;;;;;;5066974;28;20519;-64
2024/03/26 02:33:35;;;;;;;7.88;2.38;;;4.90;99.90;;;;;;5064893;28;20048;-64
2024/03/26 02:36:01;;;;;;;7.30;2.20;;;4.80;99.90;;;;;;5072578;28;20567;-63
2024/03/26 02:38:26;;;;;;;8.10;2.20;;;4.80;99.90;;;;;;5080626;28;20441;-64
2024/03/26 02:40:52;;;;;;;11.02;2.35;;;4.80;99.90;;;;;;5083141;28;20937;-64
2024/03/26 02:43:18;;;;;;;7.55;2.45;;;4.80;99.90;;;;;;5080080;28;20054;-64
2024/03/26 02:45:44;;;;;;;5.00;2.40;;;4.80;99.90;;;;;;5081810;28;20044;-64
2024/03/26 02:48:10;;;;;;;13.65;2.78;;;4.80;94.40;;;;;;5072132;28;20097;-64
2024/03/26 02:50:35;;;;;;;8.80;2.47;;;4.80;86.40;;;;;;5072778;28;20090;-64
2024/03/26 02:53:01;;;;;;;9.18;2.28;;;4.70;83.40;;;;;;5082521;28;20046;-64
2024/03/26 02:55:27;;;;;;;15.15;2.83;;;4.70;79.30;;;;;;5079701;28;20152;-64
2024/03/26 02:57:52;;;;;;;5.40;2.40;;;4.70;58.90;;;;;;5084121;28;20057;-64
2024/03/26 03:00:18;;;;;;;6.90;2.22;;;4.70;20.70;;;;;;5062012;28;20044;-64
2024/03/26 03:02:44;;;;;;;7.35;2.38;;;4.80;4.50;;;;;;5079159;28;20059;-64
2024/03/26 03:05:10;;;;;;;6.80;2.60;;;4.70;2.40;;;;;;5076556;28;20524;-64
2024/03/26 03:07:36;;;;;;;6.30;2.22;;;4.70;26.80;;;;;;5066753;28;20047;-64
2024/03/26 03:10:03;;;;;;;5.35;2.40;;;4.70;25.20;;;;;;5078407;28;20048;-64
2024/03/26 03:12:28;;;;;;;9.73;2.33;;;4.60;15.10;;;;;;5077559;28;20048;-64
2024/03/26 03:14:54;;;;;;;14.68;2.60;;;4.70;1.20;;;;;;5067315;28;20051;-64
2024/03/26 03:17:20;;;;;;;12.60;3.33;;;4.70;1.00;;;;;;5073994;28;20125;-64
2024/03/26 03:19:45;;;;;;;10.55;2.70;;;4.70;1.00;;;;;;5076534;28;20044;-64
2024/03/26 03:22:11;;;;;;;6.75;2.97;;;4.60;1.00;;;;;;5067904;28;20088;-65
2024/03/26 03:24:37;;;;;;;8.30;2.63;;;4.60;1.00;;;;;;5078972;28;20825;-64
2024/03/26 03:27:02;;;;;;;12.88;3.00;;;4.60;1.00;;;;;;5071705;28;20068;-65
2024/03/26 03:29:29;;;;;;;6.93;2.35;;;4.60;6.40;;;;;;5080431;28;20047;-65
2024/03/26 03:31:55;;;;;;;9.40;3.00;;;4.60;15.20;;;;;;5082122;28;20059;-64
2024/03/26 03:34:20;;;;;;;10.30;2.83;;;4.60;11.60;;;;;;5076387;28;20051;-64
2024/03/26 03:36:46;;;;;;;5.47;2.20;;;4.60;8.80;;;;;;5075844;28;20109;-64
2024/03/26 03:39:12;;;;;;;11.88;2.42;;;4.50;1.00;;;;;;5063252;28;20122;-64
2024/03/26 03:41:44;;;;;;;12.45;2.75;;;4.50;1.00;;;;;;5071205;28;20087;-64
2024/03/26 03:44:09;;;;;;;10.15;2.22;;;4.60;1.00;;;;;;5071454;28;20922;-64
2024/03/26 03:46:35;;;;;;;5.95;1.90;;;4.50;1.00;;;;;;5067277;28;20790;-64
2024/03/26 03:49:01;;;;;;;5.72;2.42;;;4.50;1.00;;;;;;5074710;28;20097;-65
2024/03/26 03:51:26;;;;;;;8.32;2.50;;;4.50;1.00;;;;;;5076966;28;20054;-64
2024/03/26 03:53:52;;;;;;;9.75;2.70;;;4.50;1.00;;;;;;5077048;28;20119;-64
2024/03/26 03:56:17;;;;;;;5.18;2.38;;;4.50;1.00;;;;;;5067000;28;20091;-64
2024/03/26 03:58:43;;;;;;;7.32;2.10;;;4.40;1.00;;;;;;5079301;28;20084;-64
2024/03/26 04:01:09;;;;;;;6.95;2.80;;;4.40;1.00;;;;;;5080355;28;20113;-65
2024/03/26 04:03:34;;;;;;;5.63;2.20;;;4.40;1.00;;;;;;5080991;28;20035;-65
2024/03/26 04:06:03;;;;;;;9.38;2.65;;;4.40;1.00;;;;;;5075819;28;20044;-64
2024/03/26 04:08:29;;;;;;;5.38;2.72;;;4.40;1.00;;;;;;5080370;28;20040;-64
2024/03/26 04:10:57;;;;;;;9.27;2.30;;;4.40;1.00;;;;;;5074913;28;20047;-65
2024/03/26 04:13:22;;;;;;;7.60;2.33;;;4.30;1.00;;;;;;5067795;28;20125;-64
2024/03/26 04:15:48;;;;;;;8.15;2.78;;;4.30;1.00;;;;;;5066998;28;20087;-64
2024/03/26 04:18:14;;;;;;;8.93;2.42;;;4.30;1.00;;;;;;5074845;28;20047;-64
2024/03/26 04:20:41;;;;;;;4.97;1.75;;;4.30;1.00;;;;;;5073996;28;20452;-64
2024/03/26 04:23:06;;;;;;;5.20;2.55;;;4.30;1.00;;;;;;5071314;28;20051;-64
2024/03/26 04:25:32;;;;;;;7.68;2.15;;;4.20;1.00;;;;;;5069787;28;20085;-64
2024/03/26 04:27:58;;;;;;;8.05;2.80;;;4.20;1.00;;;;;;5078258;28;20044;-64
2024/03/26 04:30:23;;;;;;;8.70;2.60;;;4.20;1.00;;;;;;5067149;28;20052;-64
2024/03/26 04:32:49;;;;;;;7.63;2.30;;;4.10;1.00;;;;;;5078356;28;20051;-64
2024/03/26 04:35:15;;;;;;;2.72;1.80;;;4.20;1.00;;;;;;5064098;28;20133;-64
2024/03/26 04:37:40;;;;;;;7.97;2.30;;;4.10;1.00;;;;;;5075767;28;20056;-64
2024/03/26 04:40:06;;;;;;;6.05;2.40;;;4.20;1.00;;;;;;5066948;28;20041;-64
2024/03/26 04:42:32;;;;;;;12.07;2.50;;;4.20;1.00;;;;;;5070660;28;20066;-65
2024/03/26 04:44:58;;;;;;;9.70;1.80;;;4.10;1.00;;;;;;5068582;28;20530;-64
2024/03/26 04:47:24;;;;;;;7.00;2.22;;;4.20;1.00;;;;;;5084032;28;20048;-64
2024/03/26 04:49:50;;;;;;;7.40;2.35;;;4.10;1.00;;;;;;5084184;28;20125;-65
2024/03/26 04:52:16;;;;;;;4.13;2.17;;;4.20;1.00;;;;;;5082045;28;20069;-64
2024/03/26 04:54:41;;;;;;;9.43;2.28;;;4.20;1.00;;;;;;5081629;28;20132;-64
2024/03/26 04:57:07;;;;;;;10.63;2.28;;;4.20;1.00;;;;;;5083666;28;20036;-64
2024/03/26 04:59:32;;;;;;;8.82;2.85;;;4.20;99.90;;;;;;5077022;28;20704;-64
2024/03/26 05:01:58;;;;;;;6.40;2.42;;;4.20;99.90;;;;;;5079595;28;20591;-64
2024/03/26 05:04:24;;;;;;;5.15;2.35;;;4.20;99.90;;;;;;5076900;28;20044;-64
2024/03/26 05:06:50;;;;;;;8.73;2.40;;;4.20;99.90;;;;;;5081377;28;20129;-64
2024/03/26 05:09:15;;;;;;;6.93;2.10;;;4.20;99.90;;;;;;5067531;28;20074;-64
2024/03/26 05:11:41;;;;;;;4.68;2.05;;;4.20;99.90;;;;;;5077847;28;20047;-65
2024/03/26 05:14:06;;;;;;;6.97;2.42;;;4.20;99.90;;;;;;5073969;28;20041;-65
2024/03/26 05:16:32;;;;;;;5.07;2.25;;;4.20;99.90;;;;;;5074811;28;20040;-64
2024/03/26 05:18:58;;;;;;;2.95;1.50;;;4.30;99.90;;;;;;5075695;28;20052;-65
2024/03/26 05:21:24;;;;;;;8.43;2.38;;;4.30;99.90;;;;;;5080460;28;20819;-64
2024/03/26 05:23:49;;;;;;;9.13;2.85;;;4.20;99.90;;;;;;5083621;28;20414;-64
2024/03/26 05:26:15;;;;;;;7.97;2.25;;;4.30;99.90;;;;;;5081734;28;20040;-65
2024/03/26 05:28:41;;;;;;;6.15;2.25;;;4.30;99.90;;;;;;5078808;28;20627;-64
2024/03/26 05:31:17;;;;;;;5.93;2.10;;;4.20;99.90;;;;;;5075596;28;20172;-65
2024/03/26 05:33:45;;;;;;;6.97;2.03;;;4.20;99.90;;;;;;5077769;28;20108;-64
2024/03/26 05:36:12;;;;;;;9.32;2.60;;;4.20;99.90;;;;;;5078938;28;20052;-64
2024/03/26 05:38:38;;;;;;;6.47;2.20;;;4.20;99.90;;;;;;5083732;28;20086;-64
2024/03/26 05:41:03;;;;;;;5.85;2.08;;;4.20;99.90;;;;;;5079319;28;20080;-65
2024/03/26 05:43:29;;;;;;;6.95;2.50;;;4.20;99.90;;;;;;5067003;28;20128;-64
2024/03/26 05:45:55;;;;;;;6.10;2.03;;;4.20;99.90;;;;;;5077691;28;20055;-64
2024/03/26 05:48:20;;;;;;;14.52;2.60;;;4.30;99.90;;;;;;5080959;28;20040;-64
2024/03/26 05:50:46;;;;;;;11.15;2.47;;;4.30;99.90;;;;;;5064654;28;20040;-64
2024/03/26 05:53:13;;;;;;;6.97;2.15;;;4.30;99.90;;;;;;5064080;28;20090;-64
2024/03/26 05:55:39;;;;;;;5.57;1.83;;;4.30;99.90;;;;;;5081469;28;20070;-65
2024/03/26 05:58:05;;;;;;;7.78;2.40;;;4.30;99.90;;;;;;5081277;28;20498;-64
2024/03/26 06:00:30;;;;;;;3.10;1.52;;;4.30;99.90;;;;;;5080447;28;20097;-64
2024/03/26 06:02:56;;;;;;;10.35;2.17;;;4.30;99.90;;;;;;5076159;28;20087;-64
2024/03/26 06:05:22;;;;;;;4.13;1.77;;;4.30;99.90;;;;;;5079312;28;20501;-65
2024/03/26 06:07:48;;;;;;;5.25;2.13;;;4.30;99.90;;;;;;5082321;28;20119;-64
2024/03/26 06:10:14;;;;;;;10.90;2.47;;;4.30;99.90;;;;;;5072614;28;20047;-64
2024/03/26 06:12:41;;;;;;;10.35;2.47;;;4.30;99.90;;;;;;5083729;28;20047;-64
2024/03/26 06:15:08;;;;;;;8.30;2.20;;;4.40;99.90;;;;;;5072547;28;20054;-65
2024/03/26 06:17:34;;;;;;;3.05;2.10;;;4.30;99.90;;;;;;5082795;28;20071;-65
2024/03/26 06:19:59;;;;;;;7.10;2.55;;;4.30;99.90;;;;;;5081457;28;20469;-64
2024/03/26 06:22:25;;;;;;;3.95;1.70;;;4.40;99.90;;;;;;5080463;28;20119;-65
2024/03/26 06:24:51;;;;;;;5.88;2.28;;;4.30;99.90;;;;;;5080572;28;20044;-64
2024/03/26 06:27:17;;;;;;;3.75;2.10;;;4.40;99.90;;;;;;5067967;28;20561;-65
2024/03/26 06:29:42;;;;;;;10.90;1.75;;;4.40;99.90;;;;;;5077675;28;20040;-64
2024/03/26 06:32:09;;;;;;;7.65;2.47;;;4.50;99.90;;;;;;5066664;28;20088;-64
2024/03/26 06:34:37;;;;;;;13.15;2.08;;;4.60;1.00;;;;;;5081432;28;20684;-64
2024/03/26 06:37:03;;;;;;;7.60;2.30;;;4.70;99.90;;;;;;5078300;28;20043;-65
2024/03/26 06:39:28;;;;;;;5.97;2.22;;;4.70;99.90;;;;;;5078468;28;20644;-65
2024/03/26 06:41:54;;;;;;;12.18;2.38;;;4.80;1.00;;;;;;5067295;28;20123;-65
2024/03/26 06:44:20;;;;;;;6.75;2.28;;;4.90;1.00;;;;;;5073069;28;20140;-65
2024/03/26 06:46:45;;;;;;;6.40;2.25;;;4.90;1.00;;;;;;5065417;28;20079;-64
2024/03/26 06:49:11;;;;;;;4.90;2.15;;;5.00;1.00;;;;;;5073451;28;20040;-65
2024/03/26 06:51:37;;;;;;;4.35;1.98;;;4.90;1.00;;;;;;5068060;28;20097;-64
2024/03/26 06:54:04;;;;;;;13.55;2.03;;;5.00;1.00;;;;;;5065564;28;20609;-64
2024/03/26 06:56:29;;;;;;;7.18;2.15;;;5.10;1.00;;;;;;5068839;28;20061;-65
2024/03/26 06:58:55;;;;;;;7.25;2.33;;;5.10;1.00;;;;;;5063959;28;20124;-65
2024/03/26 07:01:21;;;;;;;5.32;1.98;;;5.00;1.00;;;;;;5074953;28;20077;-65
2024/03/26 07:03:47;;;;;;;5.15;2.00;;;5.00;1.00;;;;;;5062319;28;20445;-64
2024/03/26 07:06:13;;;;;;;6.03;2.15;;;5.00;1.00;;;;;;5066067;28;20044;-64
2024/03/26 07:08:39;;;;;;;9.60;2.60;;;4.90;1.00;;;;;;5068612;28;20726;-64
2024/03/26 07:11:05;;;;;;;4.60;2.13;;;4.90;1.00;;;;;;5068094;28;20506;-65
2024/03/26 07:13:31;;;;;;;5.38;2.63;;;4.90;1.00;;;;;;5058746;28;20384;-64
2024/03/26 07:15:57;;;;;;;8.23;2.35;;;4.90;1.00;;;;;;5071233;28;20075;-64
2024/03/26 07:18:23;;;;;;;5.30;2.10;;;5.00;1.00;;;;;;5055661;28;20101;-64
2024/03/26 07:20:48;;;;;;;3.10;1.70;;;5.10;1.00;;;;;;5067458;28;20543;-64
2024/03/26 07:23:14;;;;;;;9.82;2.70;;;5.10;1.00;;;;;;5080104;28;20048;-65
2024/03/26 07:25:40;;;;;;;6.63;2.40;;;5.20;1.00;;;;;;5080720;28;20051;-64
2024/03/26 07:28:06;;;;;;;8.63;2.35;;;5.30;1.00;;;;;;5077966;28;20456;-64
2024/03/26 07:30:31;;;;;;;4.00;1.58;;;5.40;1.00;;;;;;5080462;28;20059;-64
2024/03/26 07:32:57;;;;;;;5.50;2.42;;;5.60;1.00;;;;;;5077906;28;20117;-64
2024/03/26 07:35:24;;;;;;;4.10;1.75;;;5.70;1.00;;;;;;5066339;28;20428;-64
2024/03/26 07:37:50;;;;;;;3.97;1.60;;;5.80;1.00;;;;;;5076891;28;20094;-64
2024/03/26 07:40:16;;;;;;;4.93;1.38;;;6.00;1.00;;;;;;5080722;28;20043;-64
2024/03/26 07:42:42;;;;;;;5.78;2.17;;;6.00;1.00;;;;;;5079597;28;20444;-65
2024/03/26 07:45:09;;;;;;;3.47;1.95;;;6.10;1.00;;;;;;5072298;28;20066;-64
2024/03/26 07:47:36;;;;;;;1.67;1.00;;;6.20;99.90;;;;;;5066754;28;20194;-64
2024/03/26 07:50:02;;;;;;;8.35;2.72;;;6.20;99.90;;;;;;5068526;28;20399;-64
2024/03/26 07:52:29;;;;;;;6.10;2.13;;;6.30;99.90;;;;;;5069964;28;20088;-64
2024/03/26 07:54:55;;;;;;;6.20;2.08;;;6.40;99.90;;;;;;5072730;28;20047;-64
2024/03/26 07:57:21;;;;;;;5.72;1.98;;;6.50;99.90;;;;;;5070204;28;20059;-64
2024/03/26 07:59:47;;;;;;;4.78;2.42;;;6.70;82.50;;;;;;5071659;28;20048;-64
2024/03/26 08:02:12;;;;;;;11.35;2.63;;;6.90;64.40;;;;;;5064825;28;20718;-64
2024/03/26 08:04:39;;;;;;;5.25;1.67;;;7.10;63.60;;;;;;5077898;28;20091;-64
2024/03/26 08:07:05;;;;;;;8.13;2.33;;;7.30;1.80;;;;;;5074883;28;20044;-64
2024/03/26 08:09:31;;;;;;;5.53;2.00;;;7.50;1.00;;;;;;5071499;28;20716;-64
2024/03/26 08:11:56;;;;;;;9.48;2.35;;;7.70;1.00;;;;;;5068726;28;20044;-64
2024/03/26 08:14:22;;;;;;;5.00;2.47;;;7.80;1.00;;;;;;5062168;28;20056;-64
2024/03/26 08:16:48;;;;;;;11.50;2.53;;;7.80;1.00;;;;;;5069338;28;20118;-64
2024/03/26 08:19:13;;;;;;;6.55;3.72;;;7.90;1.00;;;;;;5066124;28;20109;-64
2024/03/26 08:21:39;;;;;;;4.15;1.80;;;8.00;1.00;;;;;;5073172;28;20706;-64
2024/03/26 08:24:05;;;;;;;10.07;2.25;;;8.10;1.00;;;;;;5065724;28;20509;-63
2024/03/26 08:26:32;;;;;;;5.75;2.35;;;8.10;1.00;;;;;;5070394;28;20059;-64
2024/03/26 08:28:58;;;;;;;3.53;2.05;;;8.10;1.00;;;;;;5070034;28;20512;-63
2024/03/26 08:31:25;;;;;;;4.43;1.67;;;8.20;1.00;;;;;;5075119;28;20082;-64
2024/03/26 08:33:50;;;;;;;5.30;2.85;;;8.10;1.00;;;;;;5064728;28;20529;-64
2024/03/26 08:36:16;;;;;;;2.90;2.00;;;8.10;1.00;;;;;;5069935;28;20118;-64
2024/03/26 08:38:42;;;;;;;4.60;2.15;;;8.10;1.00;;;;;;5070650;28;20075;-64
2024/03/26 08:41:08;;;;;;;8.95;3.15;;;8.20;1.00;;;;;;5072178;28;20040;-64
2024/03/26 08:43:34;;;;;;;7.45;2.28;;;8.20;1.00;;;;;;5078526;28;20551;-64
2024/03/26 08:45:59;;;;;;;6.40;2.33;;;8.20;1.00;;;;;;5087988;28;20040;-64
2024/03/26 08:48:25;;;;;;;12.95;2.40;;;8.20;1.00;;;;;;5094192;28;20043;-64
2024/03/26 08:50:51;;;;;;;4.93;2.25;;;8.30;1.00;;;;;;5083847;28;20398;-64
2024/03/26 08:53:17;;;;;;;3.13;2.38;;;8.40;1.00;;;;;;5084990;28;20048;-64
2024/03/26 08:55:43;;;;;;;7.95;2.65;;;8.50;1.00;;;;;;5071541;28;20127;-64
2024/03/26 08:58:09;;;;;;;6.97;3.05;;;8.60;1.00;;;;;;5078733;28;20041;-64
2024/03/26 09:00:35;;;;;;;2.38;1.55;;;8.70;99.90;;;;;;5076862;28;20043;-64
2024/03/26 09:03:01;;;;;;;4.40;2.17;;;8.70;99.90;;;;;;5073952;28;20040;-64
2024/03/26 09:05:27;;;;;;;8.98;2.88;;;8.70;99.90;;;;;;5075720;28;20050;-64
2024/03/26 09:07:53;;;;;;;7.38;2.47;;;8.80;99.90;;;;;;5071823;28;20067;-63
2024/03/26 09:10:19;;;;;;;5.55;2.42;;;8.90;99.90;;;;;;5068887;28;20133;-63
2024/03/26 09:12:47;;;;;;;6.03;2.65;;;9.10;99.90;;;;;;5065169;28;20068;-63
2024/03/26 09:15:13;;;;;;;7.80;2.45;;;9.20;99.90;;;;;;5076642;28;20048;-64
2024/03/26 09:17:38;;;;;;;6.00;3.03;;;9.20;99.90;;;;;;5072785;28;20106;-64
2024/03/26 09:20:05;;;;;;;5.68;2.50;;;9.40;99.90;;;;;;5067200;28;20047;-64
2024/03/26 09:22:32;;;;;;;3.85;2.30;;;9.50;99.90;;;;;;5079188;28;20060;-64
2024/03/26 09:24:57;;;;;;;7.32;2.47;;;9.70;1.00;;;;;;5067840;28;20510;-63
2024/03/26 09:27:24;;;;;;;5.35;2.47;;;9.90;99.90;;;;;;5079611;28;20051;-64
2024/03/26 09:29:49;;;;;;;7.25;2.30;;;9.90;99.90;;;;;;5064546;28;20049;-64
2024/03/26 09:32:17;;;;;;;1.35;1.25;;;10.00;99.90;;;;;;5082282;28;20059;-64
2024/03/26 09:34:43;;;;;;;5.60;2.42;;;10.00;99.90;;;;;;5073725;28;20053;-63
2024/03/26 09:37:10;;;;;;;6.47;2.65;;;10.10;99.90;;;;;;5062104;28;20044;-63
2024/03/26 09:39:35;;;;;;;7.38;1.42;;;10.20;99.90;;;;;;5072978;28;20055;-63
2024/03/26 09:42:03;;;;;;;4.20;2.25;;;10.20;99.90;;;;;;5076329;28;20043;-64
2024/03/26 09:44:32;;;;;;;4.60;2.00;;;10.20;99.90;;;;;;5079591;28;20553;-63
2024/03/26 09:47:00;;;;;;;5.20;2.80;;;10.20;99.90;;;;;;5065489;28;20475;-63
2024/03/26 09:49:27;;;;;;;1.95;1.38;;;10.30;99.90;;;;;;5080530;28;20081;-64
2024/03/26 09:51:59;;;;;;;3.03;1.80;;;10.30;99.90;;;;;;5087854;28;20109;-63
2024/03/26 09:54:26;;;;;;;10.25;2.67;;;10.30;99.90;;;;;;5092800;28;20090;-63
2024/03/26 09:56:53;;;;;;;2.88;1.90;;;10.30;99.90;;;;;;5071900;28;20486;-64
2024/03/26 09:59:19;;;;;;;2.40;1.90;;;10.30;99.90;;;;;;5080852;28;20054;-63
2024/03/26 10:01:46;;;;;;;7.13;2.65;;;10.30;99.90;;;;;;5075915;28;20123;-64
2024/03/26 10:04:13;;;;;;;5.75;2.22;;;10.40;99.90;;;;;;5081432;28;20059;-63
2024/03/26 10:06:40;;;;;;;1.38;0.70;;;10.60;99.90;;;;;;5070683;28;20196;-63
2024/03/26 10:09:07;;;;;;;4.57;2.28;;;10.60;99.90;;;;;;5075848;28;20478;-63
2024/03/26 10:11:32;;;;;;;5.50;2.50;;;10.60;99.90;;;;;;5074688;28;20410;-63
2024/03/26 10:13:58;;;;;;;5.45;2.45;;;10.60;99.90;;;;;;5074537;28;20050;-63
2024/03/26 10:16:24;;;;;;;6.40;2.90;;;10.50;99.90;;;;;;5063116;28;20113;-63
2024/03/26 10:18:50;;;;;;;2.85;2.00;;;10.50;99.90;;;;;;5061956;28;20084;-64
2024/03/26 10:21:15;;;;;;;3.58;2.00;;;10.50;99.90;;;;;;5068179;28;20056;-64
2024/03/26 10:23:43;;;;;;;10.50;3.13;;;10.50;99.90;;;;;;5070471;28;20109;-63
2024/03/26 10:26:10;;;;;;;5.82;2.05;;;10.60;99.90;;;;;;5062910;28;20466;-64
2024/03/26 10:28:38;;;;;;;1.42;1.33;;;10.80;99.90;;;;;;5061615;28;20044;-63
2024/03/26 10:31:04;;;;;;;3.95;2.90;;;11.00;99.90;;;;;;5070995;28;20410;-63
2024/03/26 10:33:31;;;;;;;4.05;2.78;;;11.00;99.90;;;;;;5073557;28;20040;-63
2024/03/26 10:35:57;;;;;;;3.97;2.70;;;11.00;99.90;;;;;;5071223;28;20556;-63
2024/03/26 10:38:24;;;;;;;5.63;2.92;;;11.10;99.90;;;;;;5071241;28;20037;-63
2024/03/26 10:41:01;;;;;;;9.13;2.63;;;11.10;99.90;;;;;;5079537;28;20554;-64
2024/03/26 10:43:27;;;;;;;2.30;2.10;;;11.30;99.90;;;;;;5073542;28;20044;-64
2024/03/26 10:45:53;;;;;;;2.60;1.52;;;11.30;99.90;;;;;;5070924;28;20059;-64
2024/03/26 10:48:24;;;;;;;4.03;2.15;;;11.30;99.90;;;;;;5062419;28;20040;-62
2024/03/26 10:50:52;;;;;;;5.85;2.53;;;11.40;99.90;;;;;;5066345;28;20094;-62
2024/03/26 10:53:20;;;;;;;6.35;2.20;;;11.50;99.90;;;;;;5064646;28;20056;-62
2024/03/26 10:55:46;;;;;;;4.28;2.65;;;11.50;99.90;;;;;;5064608;28;20130;-62
2024/03/26 10:58:12;;;;;;;2.42;2.20;;;11.50;99.90;;;;;;5064953;28;20494;-62
2024/03/26 11:00:40;;;;;;;3.90;2.35;;;11.60;99.90;;;;;;5063089;28;20675;-62
2024/03/26 11:03:08;;;;;;;7.35;2.85;;;11.60;99.90;;;;;;5072775;28;20114;-62
2024/03/26 11:05:36;;;;;;;4.38;2.45;;;11.60;99.90;;;;;;5069341;28;20043;-62
2024/03/26 11:08:02;;;;;;;3.75;2.58;;;11.70;99.90;;;;;;5065567;28;20052;-62
2024/03/26 11:10:28;;;;;;;2.95;2.13;;;11.90;99.90;;;;;;5064821;28;20394;-62
2024/03/26 11:12:57;;;;;;;3.92;2.63;;;11.80;99.90;;;;;;5080920;28;20048;-62
2024/03/26 11:15:28;;;;;;;3.33;2.20;;;11.70;99.90;;;;;;5071080;28;20783;-62
2024/03/26 11:17:59;;;;;;;5.00;2.72;;;11.60;99.90;;;;;;5078917;28;20044;-62
2024/03/26 11:20:29;;;;;;;5.85;2.55;;;11.50;99.90;;;;;;5075242;28;20052;-62
2024/03/26 11:23:06;;;;;;;3.08;2.22;;;11.50;99.90;;;;;;5082384;28;20093;-61
2024/03/26 11:25:33;;;;;;;12.88;2.80;;;11.40;99.90;;;;;;5067481;28;20529;-62
2024/03/26 11:28:01;;;;;;;5.25;2.65;;;11.50;99.90;;;;;;5064392;28;20113;-62
2024/03/26 11:30:29;;;;;;;5.97;2.60;;;11.60;99.90;;;;;;5068175;28;20080;-62
2024/03/26 11:32:56;;;;;;;4.97;3.33;;;11.60;99.90;;;;;;5066884;28;20548;-62
2024/03/26 11:35:27;;;;;;;7.93;4.35;;;11.60;99.90;;;;;;5067626;28;20044;-61
2024/03/26 11:37:57;;;;;;;3.42;2.70;;;11.50;99.90;;;;;;5064087;28;20053;-62
2024/03/26 11:40:25;;;;;;;4.88;3.17;;;11.50;99.90;;;;;;5060514;28;20048;-62
2024/03/26 11:42:53;;;;;;;2.42;2.22;;;11.40;99.90;;;;;;5070833;28;20120;-62
2024/03/26 11:45:19;;;;;;;4.53;2.85;;;11.40;99.90;;;;;;5068706;28;20052;-62
2024/03/26 11:47:45;;;;;;;7.72;2.60;;;11.40;99.90;;;;;;5060624;28;20049;-62
2024/03/26 11:50:11;;;;;;;4.10;2.70;;;11.40;99.90;;;;;;5063937;28;20051;-62
2024/03/26 11:52:38;;;;;;;4.30;2.70;;;11.40;99.90;;;;;;5062367;28;20059;-62
2024/03/26 11:55:09;;;;;;;3.80;2.13;;;11.50;99.90;;;;;;5059573;28;20410;-62
2024/03/26 11:57:39;;;;;;;4.05;2.50;;;11.60;99.90;;;;;;5063814;28;20077;-62
2024/03/26 12:00:06;;;;;;;4.07;2.45;;;11.70;99.90;;;;;;5065264;28;20072;-62
2024/03/26 12:02:33;;;;;;;5.50;2.58;;;11.70;99.90;;;;;;5066332;28;20101;-63
2024/03/26 12:04:59;;;;;;;3.60;1.88;;;11.70;99.90;;;;;;5061429;28;20493;-61
2024/03/26 12:07:30;;;;;;;2.72;2.42;;;11.70;99.90;;;;;;5066479;28;20102;-62
2024/03/26 12:09:56;;;;;;;6.63;2.88;;;11.60;99.90;;;;;;5057068;28;20059;-62
2024/03/26 12:12:21;;;;;;;2.47;2.03;;;11.70;99.90;;;;;;5063648;28;20036;-62
2024/03/26 12:14:50;;;;;;;5.90;2.83;;;12.00;99.90;;;;;;5081578;28;20148;-62
2024/03/26 12:17:16;;;;;;;3.17;2.45;;;12.00;99.90;;;;;;5079955;28;20562;-62
2024/03/26 12:19:43;;;;;;;2.67;2.45;;;12.00;99.90;;;;;;5080206;28;20944;-62
2024/03/26 12:22:11;;;;;;;5.57;2.63;;;12.10;99.90;;;;;;5079857;28;20052;-62
2024/03/26 12:24:39;;;;;;;7.50;3.00;;;12.30;99.90;;;;;;5079202;28;20244;-62
2024/03/26 12:27:06;;;;;;;5.35;2.10;;;12.30;99.90;;;;;;5075059;28;20056;-62
2024/03/26 12:29:32;;;;;;;5.68;2.25;;;12.30;99.90;;;;;;5073362;28;20478;-62
2024/03/26 12:31:59;;;;;;;6.45;3.00;;;12.20;99.90;;;;;;5077023;28;20097;-62
2024/03/26 12:34:25;;;;;;;3.30;2.70;;;12.20;99.90;;;;;;5079824;28;20056;-61
2024/03/26 12:36:51;;;;;;;4.90;2.78;;;12.10;99.90;;;;;;5064780;28;20076;-62
2024/03/26 12:39:17;;;;;;;4.60;2.35;;;12.20;99.90;;;;;;5073459;28;20115;-62
2024/03/26 12:41:42;;;;;;;3.15;2.40;;;12.30;99.90;;;;;;5076126;28;20595;-62
2024/03/26 12:44:13;;;;;;;3.83;1.98;;;12.30;99.90;;;;;;5061273;28;20883;-62
2024/03/26 12:46:40;;;;;;;5.32;2.28;;;12.20;99.90;;;;;;5077317;28;20067;-62
2024/03/26 12:49:05;;;;;;;3.40;1.88;;;12.10;99.90;;;;;;5079583;28;20089;-62